Hang Jun 9 — BTYL — position and weather

sailwx.info

Track history (hours):
 
Tides and Currents Weather Stations Pressure Air Temp Water Temp Dewpoint Dewpoint Depression Visibility Wind Speed Wind Dir Waves Ship Positions

Hang Jun 9

Last reported at 2014-Oct-20 17:30 UTC. Time now 2014-Oct-20 17:57 UTC.
Position N 31°39' E 121°17'.

Length 85 m; draft 3.5 m.

Type: Dredging. MMSI: 412070110.

Date/timePositionNaut miles runAvg speedWind from/ knotsBaromVisibWave heightAir tempDewpointWater temp
2014-Oct-20 17:30N 31°39' E 121°17'0 0.0
2014-Oct-20 16:33N 31°39' E 121°17'0 0.0
2014-Oct-20 15:25N 31°39' E 121°17'0 0.0
2014-Oct-20 14:33N 31°39' E 121°17'0 0.0
2014-Oct-20 13:19N 31°39' E 121°17'0 0.1
2014-Oct-20 12:27N 31°39' E 121°17'0 0.1
2014-Oct-20 08:32N 31°38' E 121°17'4 4.1
2014-Oct-20 07:30N 31°35' E 121°19'1 1.2
2014-Oct-20 06:33N 31°33' E 121°19'0 0.5
2014-Oct-20 05:31N 31°33' E 121°20'0 0.3
2014-Oct-20 04:33N 31°33' E 121°20'2 1.9
2014-Oct-20 03:30N 31°35' E 121°19'1 1.2
2014-Oct-20 02:32N 31°34' E 121°19'0 0.1
2014-Oct-20 01:33N 31°33' E 121°19'0 0.3
2014-Oct-20 00:32N 31°33' E 121°19'6 5.6
2014-Oct-19 23:31N 31°38' E 121°16'0 0.3
2014-Oct-19 22:31N 31°39' E 121°17'0 0.0
2014-Oct-19 21:33N 31°39' E 121°17'0 0.0
2014-Oct-19 20:29N 31°39' E 121°17'0 0.0
2014-Oct-19 19:25N 31°39' E 121°17'0 0.0
2014-Oct-19 18:33N 31°39' E 121°17'0 0.0
2014-Oct-19 17:32N 31°39' E 121°17'0 0.1
2014-Oct-19 16:33N 31°39' E 121°17'0 0.0
2014-Oct-19 15:30N 31°39' E 121°17'0 0.0
2014-Oct-19 14:33N 31°39' E 121°17'0 0.0
2014-Oct-19 13:27N 31°39' E 121°17'0 0.0
2014-Oct-19 12:34N 31°39' E 121°17'0 0.0
2014-Oct-19 11:32N 31°39' E 121°17'0 0.1
2014-Oct-19 10:33N 31°39' E 121°17'0 0.1
2014-Oct-19 09:33N 31°39' E 121°17'1 1.4
2014-Oct-19 08:32N 31°37' E 121°17'5 4.5
2014-Oct-19 07:30N 31°33' E 121°20'0 0.1
2014-Oct-19 06:32N 31°33' E 121°20'1 1.0
2014-Oct-19 05:32N 31°34' E 121°19'3 3.5
2014-Oct-19 04:33N 31°36' E 121°17'4 4.4
2014-Oct-19 03:31N 31°39' E 121°13'0 0.0
2014-Oct-19 02:33N 31°39' E 121°13'0 0.0
2014-Oct-19 01:33N 31°39' E 121°13'0 0.0
2014-Oct-19 00:32N 31°39' E 121°13'0 0.0
2014-Oct-18 23:32N 31°39' E 121°13'0 0.0
2014-Oct-18 22:31N 31°39' E 121°13'0 0.0
2014-Oct-18 21:32N 31°39' E 121°13'0 0.0
2014-Oct-18 20:33N 31°39' E 121°13'0 0.0
2014-Oct-18 19:33N 31°39' E 121°13'0 0.0
2014-Oct-18 18:32N 31°39' E 121°13'0 0.0
2014-Oct-18 17:33N 31°39' E 121°13'0 0.0
2014-Oct-18 16:32N 31°39' E 121°13'0 0.0
2014-Oct-18 15:33N 31°39' E 121°13'0 0.0
2014-Oct-18 14:32N 31°39' E 121°13'0 0.0
2014-Oct-18 13:31N 31°39' E 121°13'0 0.0
2014-Oct-18 12:33N 31°39' E 121°13'0 0.0
2014-Oct-18 11:32N 31°39' E 121°13'0 0.0
2014-Oct-18 10:33N 31°39' E 121°13'0 0.0
2014-Oct-18 09:33N 31°39' E 121°13'0 0.0
2014-Oct-18 08:31N 31°39' E 121°13'1 0.8
2014-Oct-18 07:33N 31°39' E 121°13'6 5.8
2014-Oct-18 06:32N 31°35' E 121°19'2 2.4
2014-Oct-18 05:33N 31°33' E 121°20'1 0.6
2014-Oct-18 04:33N 31°33' E 121°19'1 0.7
2014-Oct-18 03:33N 31°33' E 121°20'1 0.6
2014-Oct-18 02:33N 31°33' E 121°20'1 0.8
2014-Oct-18 01:33N 31°34' E 121°19'1 0.8
2014-Oct-18 00:34N 31°33' E 121°19'5 5.3
2014-Oct-17 23:32N 31°38' E 121°17'0 0.4
2014-Oct-17 22:32N 31°39' E 121°17'0 0.1
2014-Oct-17 21:31N 31°39' E 121°17'0 0.0
2014-Oct-17 20:33N 31°39' E 121°17'0 0.0
2014-Oct-17 19:33N 31°39' E 121°17'0 0.0
2014-Oct-17 18:34N 31°39' E 121°17'0 0.0
2014-Oct-17 17:33N 31°39' E 121°17'0 0.0
2014-Oct-17 16:32N 31°39' E 121°17'0 0.1
2014-Oct-17 15:31N 31°39' E 121°17'0 0.1
2014-Oct-17 14:33N 31°39' E 121°17'0 0.0
2014-Oct-17 13:30N 31°39' E 121°17'0 0.0
2014-Oct-17 12:30N 31°39' E 121°17'0 0.0
2014-Oct-17 11:33N 31°39' E 121°17'0 0.0
2014-Oct-17 10:29N 31°39' E 121°17'0 0.0
2014-Oct-17 09:33N 31°39' E 121°17'1 0.5
2014-Oct-17 08:33N 31°38' E 121°17'5 4.5
2014-Oct-17 07:32N 31°34' E 121°19'0 0.3
2014-Oct-17 06:32N 31°34' E 121°19'0 0.5
2014-Oct-17 05:31N 31°35' E 121°19'1 1.3
2014-Oct-17 04:33N 31°34' E 121°20'0 0.1
2014-Oct-17 03:33N 31°34' E 121°20'1 0.5
2014-Oct-17 02:33N 31°34' E 121°19'1 1.1
2014-Oct-17 01:33N 31°33' E 121°20'1 1.3
2014-Oct-17 00:33N 31°34' E 121°19'5 5.3
2014-Oct-16 23:33N 31°39' E 121°17'0 0.0
2014-Oct-16 22:33N 31°39' E 121°17'0 0.1
2014-Oct-16 21:33N 31°39' E 121°17'0 0.0
2014-Oct-16 20:32N 31°39' E 121°17'0 0.0
2014-Oct-16 19:33N 31°39' E 121°17'0 0.0
2014-Oct-16 18:33N 31°39' E 121°17'0 0.0
2014-Oct-16 17:33N 31°39' E 121°17'0 0.0
2014-Oct-16 16:32N 31°39' E 121°17'0 0.0
2014-Oct-16 15:30N 31°39' E 121°17'0 0.0
2014-Oct-16 14:33N 31°39' E 121°17'0 0.1
2014-Oct-16 13:33N 31°39' E 121°17'0 0.1
2014-Oct-16 12:33N 31°39' E 121°17'0 0.0
2014-Oct-16 11:33N 31°39' E 121°17'0 0.0
2014-Oct-16 10:32N 31°39' E 121°17'0 0.0
2014-Oct-16 09:32N 31°39' E 121°17'1 0.5
2014-Oct-16 08:33N 31°38' E 121°17'6 5.7
2014-Oct-16 07:33N 31°33' E 121°20'1 0.6
2014-Oct-16 06:32N 31°34' E 121°20'1 1.3
2014-Oct-16 05:33N 31°35' E 121°19'2 1.7
2014-Oct-16 04:33N 31°33' E 121°20'1 0.5
2014-Oct-16 03:33N 31°33' E 121°19'0 0.1
2014-Oct-16 02:33N 31°33' E 121°19'1 1.2
2014-Oct-16 01:32N 31°35' E 121°20'1 1.2
2014-Oct-16 00:33N 31°33' E 121°19'5 4.8
2014-Oct-15 23:34N 31°38' E 121°17'1 0.8
2014-Oct-15 22:31N 31°39' E 121°17'0 0.1
2014-Oct-15 21:31N 31°39' E 121°17'0 0.0
2014-Oct-15 20:33N 31°39' E 121°17'0 0.1
2014-Oct-15 19:33N 31°39' E 121°17'0 0.0
2014-Oct-15 18:27N 31°39' E 121°17'0 0.0
2014-Oct-15 17:29N 31°39' E 121°17'0 0.0
2014-Oct-15 16:33N 31°39' E 121°17'0 0.0
2014-Oct-15 15:30N 31°39' E 121°17'0 0.0
2014-Oct-15 14:32N 31°39' E 121°17'0 0.0
2014-Oct-15 13:33N 31°39' E 121°17'0 0.0
2014-Oct-15 12:34N 31°39' E 121°17'0 0.0
2014-Oct-15 11:30N 31°39' E 121°17'0 0.0
2014-Oct-15 10:33N 31°39' E 121°17'0 0.1
2014-Oct-15 09:32N 31°39' E 121°17'5 5.1
2014-Oct-15 08:33N 31°34' E 121°19'0 0.2
2014-Oct-15 07:33N 31°34' E 121°19'0 0.4
2014-Oct-15 06:33N 31°34' E 121°19'0 0.1
2014-Oct-15 05:33N 31°34' E 121°19'1 1.1
2014-Oct-15 04:34N 31°33' E 121°20'0 0.2
2014-Oct-15 03:33N 31°33' E 121°20'0 0.1
2014-Oct-15 02:30N 31°33' E 121°20'0 0.3
2014-Oct-15 01:33N 31°33' E 121°20'0 0.1
2014-Oct-15 00:29N 31°33' E 121°20'6 3.1
2014-Oct-14 22:31N 31°39' E 121°17'0 0.0
2014-Oct-14 20:17N 31°39' E 121°17'0 0.1
2014-Oct-14 19:29N 31°39' E 121°17'0 0.0
2014-Oct-14 09:32N 31°39' E 121°17'0 0.2
2014-Oct-14 08:31N 31°38' E 121°17'6 6.2
2014-Oct-14 07:33N 31°33' E 121°20'1 0.9
2014-Oct-14 06:32N 31°34' E 121°19'1 0.9
2014-Oct-14 05:33N 31°34' E 121°19'1 1.4
2014-Oct-14 04:33N 31°33' E 121°19'1 0.5
2014-Oct-14 03:33N 31°33' E 121°20'0 0.2
2014-Oct-14 02:32N 31°33' E 121°20'0 0.2
2014-Oct-14 01:33N 31°33' E 121°19'0 0.2
2014-Oct-14 00:33N 31°33' E 121°19'6 5.7
2014-Oct-13 23:33N 31°39' E 121°17'0 0.0
2014-Oct-13 22:31N 31°39' E 121°17'0 0.0
2014-Oct-13 21:32N 31°39' E 121°17'0 0.0
2014-Oct-13 20:33N 31°39' E 121°17'0 0.0
2014-Oct-13 19:32N 31°39' E 121°17'0 0.0
2014-Oct-13 18:33N 31°39' E 121°17'0 0.0
2014-Oct-13 17:30N 31°39' E 121°17'0 0.0
2014-Oct-13 16:33N 31°39' E 121°17'0 0.0
2014-Oct-13 15:33N 31°39' E 121°17'0 0.0
2014-Oct-13 14:30N 31°39' E 121°17'0 0.0
2014-Oct-13 13:32N 31°39' E 121°17'0 0.0
2014-Oct-13 12:33N 31°39' E 121°17'0 0.0
2014-Oct-13 11:33N 31°39' E 121°17'0 0.0
2014-Oct-13 10:30N 31°39' E 121°17'0 0.0
2014-Oct-13 09:32N 31°39' E 121°17'0 0.1
2014-Oct-13 08:33N 31°39' E 121°17'0 0.0
2014-Oct-13 07:33N 31°39' E 121°17'0 0.0
2014-Oct-13 06:33N 31°39' E 121°17'0 0.1
2014-Oct-13 05:33N 31°39' E 121°17'0 0.0
2014-Oct-13 04:30N 31°39' E 121°17'0 0.0
2014-Oct-13 03:32N 31°39' E 121°17'0 0.0
2014-Oct-13 02:33N 31°39' E 121°17'0 0.0
2014-Oct-13 01:33N 31°39' E 121°17'0 0.0
2014-Oct-13 00:33N 31°39' E 121°17'0 0.0
2014-Oct-12 23:33N 31°39' E 121°17'0 0.0
2014-Oct-12 22:33N 31°39' E 121°17'0 0.0
2014-Oct-12 21:31N 31°39' E 121°17'0 0.0
2014-Oct-12 20:33N 31°39' E 121°17'0 0.1
2014-Oct-12 19:32N 31°39' E 121°17'0 0.0
2014-Oct-12 18:33N 31°39' E 121°17'0 0.1
2014-Oct-12 17:33N 31°39' E 121°17'0 0.0
2014-Oct-12 16:32N 31°39' E 121°17'0 0.0
2014-Oct-12 15:30N 31°39' E 121°17'0 0.0
2014-Oct-12 14:32N 31°39' E 121°17'0 0.0
2014-Oct-12 13:31N 31°39' E 121°17'0 0.0
2014-Oct-12 12:33N 31°39' E 121°17'0 0.0
2014-Oct-12 11:32N 31°39' E 121°17'0 0.0
2014-Oct-12 10:33N 31°39' E 121°17'0 0.0
2014-Oct-12 09:32N 31°39' E 121°17'0 0.0
2014-Oct-12 08:33N 31°39' E 121°17'0 0.2
2014-Oct-12 07:32N 31°39' E 121°17'0 0.0
2014-Oct-12 06:31N 31°39' E 121°17'6 5.9
2014-Oct-12 05:33N 31°34' E 121°20'1 1.1
2014-Oct-12 04:34N 31°34' E 121°19'0 0.3
2014-Oct-12 03:33N 31°34' E 121°19'1 1.3
2014-Oct-12 02:33N 31°34' E 121°20'1 0.8
2014-Oct-12 01:33N 31°33' E 121°20'0 0.5
2014-Oct-12 00:30N 31°33' E 121°19'5 5.5
2014-Oct-11 23:33N 31°38' E 121°17'1 0.5
2014-Oct-11 22:31N 31°39' E 121°17'0 0.0
2014-Oct-11 21:31N 31°39' E 121°17'0 0.0
2014-Oct-11 20:29N 31°39' E 121°17'0 0.1
2014-Oct-11 19:33N 31°39' E 121°17'0 0.0
2014-Oct-11 18:25N 31°39' E 121°17'0 0.0
2014-Oct-11 17:33N 31°39' E 121°17'0 0.1
2014-Oct-11 16:33N 31°38' E 121°17'0 0.1
2014-Oct-11 15:32N 31°39' E 121°17'0 0.0
2014-Oct-11 14:33N 31°39' E 121°17'0 0.0
2014-Oct-11 13:33N 31°39' E 121°17'0 0.1
2014-Oct-11 12:33N 31°39' E 121°17'0 0.0
2014-Oct-11 11:29N 31°39' E 121°17'0 0.0
2014-Oct-11 10:33N 31°39' E 121°17'0 0.0
2014-Oct-11 09:33N 31°39' E 121°17'2 1.8
2014-Oct-11 08:33N 31°37' E 121°18'3 3.5
2014-Oct-11 07:33N 31°34' E 121°19'0 0.4
2014-Oct-11 06:33N 31°33' E 121°19'0 0.2
2014-Oct-11 05:33N 31°33' E 121°19'0 0.3
2014-Oct-11 04:33N 31°33' E 121°19'1 1.0
2014-Oct-11 03:33N 31°34' E 121°19'1 0.9
2014-Oct-11 02:33N 31°33' E 121°19'1 0.6
2014-Oct-11 01:33N 31°33' E 121°20'0 0.5
2014-Oct-11 00:33N 31°33' E 121°19'6 5.8
2014-Oct-10 23:33N 31°38' E 121°17'0 0.1
2014-Oct-10 22:33N 31°38' E 121°17'0 0.0
2014-Oct-10 21:33N 31°38' E 121°17'0 0.1
2014-Oct-10 20:33N 31°38' E 121°17'0 0.1
2014-Oct-10 19:33N 31°39' E 121°17'0 0.0
2014-Oct-10 18:33N 31°39' E 121°17'0 0.0
2014-Oct-10 17:31N 31°39' E 121°17'  
Track history (hours):
 
Tides and Currents Weather Stations Pressure Air Temp Water Temp Dewpoint Dewpoint Depression Visibility Wind Speed Wind Dir Waves Ship Positions

Hang Jun 9

Last reported at 2014-Oct-20 17:30 UTC. Time now 2014-Oct-20 17:57 UTC.
Position N 31°39' E 121°17'.

Length 85 m; draft 3.5 m.

Type: Dredging. MMSI: 412070110.

Date/timePositionNaut miles runAvg speedWind from/ knotsBaromVisibWave heightAir tempDewpointWater temp
2014-Oct-20 17:30N 31°39' E 121°17'0 0.0
2014-Oct-20 16:33N 31°39' E 121°17'0 0.0
2014-Oct-20 15:25N 31°39' E 121°17'0 0.0
2014-Oct-20 14:33N 31°39' E 121°17'0 0.0
2014-Oct-20 13:19N 31°39' E 121°17'0 0.1
2014-Oct-20 12:27N 31°39' E 121°17'0 0.1
2014-Oct-20 08:32N 31°38' E 121°17'4 4.1
2014-Oct-20 07:30N 31°35' E 121°19'1 1.2
2014-Oct-20 06:33N 31°33' E 121°19'0 0.5
2014-Oct-20 05:31N 31°33' E 121°20'0 0.3
2014-Oct-20 04:33N 31°33' E 121°20'2 1.9
2014-Oct-20 03:30N 31°35' E 121°19'1 1.2
2014-Oct-20 02:32N 31°34' E 121°19'0 0.1
2014-Oct-20 01:33N 31°33' E 121°19'0 0.3
2014-Oct-20 00:32N 31°33' E 121°19'6 5.6
2014-Oct-19 23:31N 31°38' E 121°16'0 0.3
2014-Oct-19 22:31N 31°39' E 121°17'0 0.0
2014-Oct-19 21:33N 31°39' E 121°17'0 0.0
2014-Oct-19 20:29N 31°39' E 121°17'0 0.0
2014-Oct-19 19:25N 31°39' E 121°17'0 0.0
2014-Oct-19 18:33N 31°39' E 121°17'0 0.0
2014-Oct-19 17:32N 31°39' E 121°17'0 0.1
2014-Oct-19 16:33N 31°39' E 121°17'0 0.0
2014-Oct-19 15:30N 31°39' E 121°17'0 0.0
2014-Oct-19 14:33N 31°39' E 121°17'0 0.0
2014-Oct-19 13:27N 31°39' E 121°17'0 0.0
2014-Oct-19 12:34N 31°39' E 121°17'0 0.0
2014-Oct-19 11:32N 31°39' E 121°17'0 0.1
2014-Oct-19 10:33N 31°39' E 121°17'0 0.1
2014-Oct-19 09:33N 31°39' E 121°17'1 1.4
2014-Oct-19 08:32N 31°37' E 121°17'5 4.5
2014-Oct-19 07:30N 31°33' E 121°20'0 0.1
2014-Oct-19 06:32N 31°33' E 121°20'1 1.0
2014-Oct-19 05:32N 31°34' E 121°19'3 3.5
2014-Oct-19 04:33N 31°36' E 121°17'4 4.4
2014-Oct-19 03:31N 31°39' E 121°13'0 0.0
2014-Oct-19 02:33N 31°39' E 121°13'0 0.0
2014-Oct-19 01:33N 31°39' E 121°13'0 0.0
2014-Oct-19 00:32N 31°39' E 121°13'0 0.0
2014-Oct-18 23:32N 31°39' E 121°13'0 0.0
2014-Oct-18 22:31N 31°39' E 121°13'0 0.0
2014-Oct-18 21:32N 31°39' E 121°13'0 0.0
2014-Oct-18 20:33N 31°39' E 121°13'0 0.0
2014-Oct-18 19:33N 31°39' E 121°13'0 0.0
2014-Oct-18 18:32N 31°39' E 121°13'0 0.0
2014-Oct-18 17:33N 31°39' E 121°13'0 0.0
2014-Oct-18 16:32N 31°39' E 121°13'0 0.0
2014-Oct-18 15:33N 31°39' E 121°13'0 0.0
2014-Oct-18 14:32N 31°39' E 121°13'0 0.0
2014-Oct-18 13:31N 31°39' E 121°13'0 0.0
2014-Oct-18 12:33N 31°39' E 121°13'0 0.0
2014-Oct-18 11:32N 31°39' E 121°13'0 0.0
2014-Oct-18 10:33N 31°39' E 121°13'0 0.0
2014-Oct-18 09:33N 31°39' E 121°13'0 0.0
2014-Oct-18 08:31N 31°39' E 121°13'1 0.8
2014-Oct-18 07:33N 31°39' E 121°13'6 5.8
2014-Oct-18 06:32N 31°35' E 121°19'2 2.4
2014-Oct-18 05:33N 31°33' E 121°20'1 0.6
2014-Oct-18 04:33N 31°33' E 121°19'1 0.7
2014-Oct-18 03:33N 31°33' E 121°20'1 0.6
2014-Oct-18 02:33N 31°33' E 121°20'1 0.8
2014-Oct-18 01:33N 31°34' E 121°19'1 0.8
2014-Oct-18 00:34N 31°33' E 121°19'5 5.3
2014-Oct-17 23:32N 31°38' E 121°17'0 0.4
2014-Oct-17 22:32N 31°39' E 121°17'0 0.1
2014-Oct-17 21:31N 31°39' E 121°17'0 0.0
2014-Oct-17 20:33N 31°39' E 121°17'0 0.0
2014-Oct-17 19:33N 31°39' E 121°17'0 0.0
2014-Oct-17 18:34N 31°39' E 121°17'0 0.0
2014-Oct-17 17:33N 31°39' E 121°17'0 0.0
2014-Oct-17 16:32N 31°39' E 121°17'0 0.1
2014-Oct-17 15:31N 31°39' E 121°17'0 0.1
2014-Oct-17 14:33N 31°39' E 121°17'0 0.0
2014-Oct-17 13:30N 31°39' E 121°17'0 0.0
2014-Oct-17 12:30N 31°39' E 121°17'0 0.0
2014-Oct-17 11:33N 31°39' E 121°17'0 0.0
2014-Oct-17 10:29N 31°39' E 121°17'0 0.0
2014-Oct-17 09:33N 31°39' E 121°17'1 0.5
2014-Oct-17 08:33N 31°38' E 121°17'5 4.5
2014-Oct-17 07:32N 31°34' E 121°19'0 0.3
2014-Oct-17 06:32N 31°34' E 121°19'0 0.5
2014-Oct-17 05:31N 31°35' E 121°19'1 1.3
2014-Oct-17 04:33N 31°34' E 121°20'0 0.1
2014-Oct-17 03:33N 31°34' E 121°20'1 0.5
2014-Oct-17 02:33N 31°34' E 121°19'1 1.1
2014-Oct-17 01:33N 31°33' E 121°20'1 1.3
2014-Oct-17 00:33N 31°34' E 121°19'5 5.3
2014-Oct-16 23:33N 31°39' E 121°17'0 0.0
2014-Oct-16 22:33N 31°39' E 121°17'0 0.1
2014-Oct-16 21:33N 31°39' E 121°17'0 0.0
2014-Oct-16 20:32N 31°39' E 121°17'0 0.0
2014-Oct-16 19:33N 31°39' E 121°17'0 0.0
2014-Oct-16 18:33N 31°39' E 121°17'0 0.0
2014-Oct-16 17:33N 31°39' E 121°17'0 0.0
2014-Oct-16 16:32N 31°39' E 121°17'0 0.0
2014-Oct-16 15:30N 31°39' E 121°17'0 0.0
2014-Oct-16 14:33N 31°39' E 121°17'0 0.1
2014-Oct-16 13:33N 31°39' E 121°17'0 0.1
2014-Oct-16 12:33N 31°39' E 121°17'0 0.0
2014-Oct-16 11:33N 31°39' E 121°17'0 0.0
2014-Oct-16 10:32N 31°39' E 121°17'0 0.0
2014-Oct-16 09:32N 31°39' E 121°17'1 0.5
2014-Oct-16 08:33N 31°38' E 121°17'6 5.7
2014-Oct-16 07:33N 31°33' E 121°20'1 0.6
2014-Oct-16 06:32N 31°34' E 121°20'1 1.3
2014-Oct-16 05:33N 31°35' E 121°19'2 1.7
2014-Oct-16 04:33N 31°33' E 121°20'1 0.5
2014-Oct-16 03:33N 31°33' E 121°19'0 0.1
2014-Oct-16 02:33N 31°33' E 121°19'1 1.2
2014-Oct-16 01:32N 31°35' E 121°20'1 1.2
2014-Oct-16 00:33N 31°33' E 121°19'5 4.8
2014-Oct-15 23:34N 31°38' E 121°17'1 0.8
2014-Oct-15 22:31N 31°39' E 121°17'0 0.1
2014-Oct-15 21:31N 31°39' E 121°17'0 0.0
2014-Oct-15 20:33N 31°39' E 121°17'0 0.1
2014-Oct-15 19:33N 31°39' E 121°17'0 0.0
2014-Oct-15 18:27N 31°39' E 121°17'0 0.0
2014-Oct-15 17:29N 31°39' E 121°17'0 0.0
2014-Oct-15 16:33N 31°39' E 121°17'0 0.0
2014-Oct-15 15:30N 31°39' E 121°17'0 0.0
2014-Oct-15 14:32N 31°39' E 121°17'0 0.0
2014-Oct-15 13:33N 31°39' E 121°17'0 0.0
2014-Oct-15 12:34N 31°39' E 121°17'0 0.0
2014-Oct-15 11:30N 31°39' E 121°17'0 0.0
2014-Oct-15 10:33N 31°39' E 121°17'0 0.1
2014-Oct-15 09:32N 31°39' E 121°17'5 5.1
2014-Oct-15 08:33N 31°34' E 121°19'0 0.2
2014-Oct-15 07:33N 31°34' E 121°19'0 0.4
2014-Oct-15 06:33N 31°34' E 121°19'0 0.1
2014-Oct-15 05:33N 31°34' E 121°19'1 1.1
2014-Oct-15 04:34N 31°33' E 121°20'0 0.2
2014-Oct-15 03:33N 31°33' E 121°20'0 0.1
2014-Oct-15 02:30N 31°33' E 121°20'0 0.3
2014-Oct-15 01:33N 31°33' E 121°20'0 0.1
2014-Oct-15 00:29N 31°33' E 121°20'6 3.1
2014-Oct-14 22:31N 31°39' E 121°17'0 0.0
2014-Oct-14 20:17N 31°39' E 121°17'0 0.1
2014-Oct-14 19:29N 31°39' E 121°17'0 0.0
2014-Oct-14 09:32N 31°39' E 121°17'0 0.2
2014-Oct-14 08:31N 31°38' E 121°17'6 6.2
2014-Oct-14 07:33N 31°33' E 121°20'1 0.9
2014-Oct-14 06:32N 31°34' E 121°19'1 0.9
2014-Oct-14 05:33N 31°34' E 121°19'1 1.4
2014-Oct-14 04:33N 31°33' E 121°19'1 0.5
2014-Oct-14 03:33N 31°33' E 121°20'0 0.2
2014-Oct-14 02:32N 31°33' E 121°20'0 0.2
2014-Oct-14 01:33N 31°33' E 121°19'0 0.2
2014-Oct-14 00:33N 31°33' E 121°19'6 5.7
2014-Oct-13 23:33N 31°39' E 121°17'0 0.0
2014-Oct-13 22:31N 31°39' E 121°17'0 0.0
2014-Oct-13 21:32N 31°39' E 121°17'0 0.0
2014-Oct-13 20:33N 31°39' E 121°17'0 0.0
2014-Oct-13 19:32N 31°39' E 121°17'0 0.0
2014-Oct-13 18:33N 31°39' E 121°17'0 0.0
2014-Oct-13 17:30N 31°39' E 121°17'0 0.0
2014-Oct-13 16:33N 31°39' E 121°17'0 0.0
2014-Oct-13 15:33N 31°39' E 121°17'0 0.0
2014-Oct-13 14:30N 31°39' E 121°17'0 0.0
2014-Oct-13 13:32N 31°39' E 121°17'0 0.0
2014-Oct-13 12:33N 31°39' E 121°17'0 0.0
2014-Oct-13 11:33N 31°39' E 121°17'0 0.0
2014-Oct-13 10:30N 31°39' E 121°17'0 0.0
2014-Oct-13 09:32N 31°39' E 121°17'0 0.1
2014-Oct-13 08:33N 31°39' E 121°17'0 0.0
2014-Oct-13 07:33N 31°39' E 121°17'0 0.0
2014-Oct-13 06:33N 31°39' E 121°17'0 0.1
2014-Oct-13 05:33N 31°39' E 121°17'0 0.0
2014-Oct-13 04:30N 31°39' E 121°17'0 0.0
2014-Oct-13 03:32N 31°39' E 121°17'0 0.0
2014-Oct-13 02:33N 31°39' E 121°17'0 0.0
2014-Oct-13 01:33N 31°39' E 121°17'0 0.0
2014-Oct-13 00:33N 31°39' E 121°17'0 0.0
2014-Oct-12 23:33N 31°39' E 121°17'0 0.0
2014-Oct-12 22:33N 31°39' E 121°17'0 0.0
2014-Oct-12 21:31N 31°39' E 121°17'0 0.0
2014-Oct-12 20:33N 31°39' E 121°17'0 0.1
2014-Oct-12 19:32N 31°39' E 121°17'0 0.0
2014-Oct-12 18:33N 31°39' E 121°17'0 0.1
2014-Oct-12 17:33N 31°39' E 121°17'0 0.0
2014-Oct-12 16:32N 31°39' E 121°17'0 0.0
2014-Oct-12 15:30N 31°39' E 121°17'0 0.0
2014-Oct-12 14:32N 31°39' E 121°17'0 0.0
2014-Oct-12 13:31N 31°39' E 121°17'0 0.0
2014-Oct-12 12:33N 31°39' E 121°17'0 0.0
2014-Oct-12 11:32N 31°39' E 121°17'0 0.0
2014-Oct-12 10:33N 31°39' E 121°17'0 0.0
2014-Oct-12 09:32N 31°39' E 121°17'0 0.0
2014-Oct-12 08:33N 31°39' E 121°17'0 0.2
2014-Oct-12 07:32N 31°39' E 121°17'0 0.0
2014-Oct-12 06:31N 31°39' E 121°17'6 5.9
2014-Oct-12 05:33N 31°34' E 121°20'1 1.1
2014-Oct-12 04:34N 31°34' E 121°19'0 0.3
2014-Oct-12 03:33N 31°34' E 121°19'1 1.3
2014-Oct-12 02:33N 31°34' E 121°20'1 0.8
2014-Oct-12 01:33N 31°33' E 121°20'0 0.5
2014-Oct-12 00:30N 31°33' E 121°19'5 5.5
2014-Oct-11 23:33N 31°38' E 121°17'1 0.5
2014-Oct-11 22:31N 31°39' E 121°17'0 0.0
2014-Oct-11 21:31N 31°39' E 121°17'0 0.0
2014-Oct-11 20:29N 31°39' E 121°17'0 0.1
2014-Oct-11 19:33N 31°39' E 121°17'0 0.0
2014-Oct-11 18:25N 31°39' E 121°17'0 0.0
2014-Oct-11 17:33N 31°39' E 121°17'0 0.1
2014-Oct-11 16:33N 31°38' E 121°17'0 0.1
2014-Oct-11 15:32N 31°39' E 121°17'0 0.0
2014-Oct-11 14:33N 31°39' E 121°17'0 0.0
2014-Oct-11 13:33N 31°39' E 121°17'0 0.1
2014-Oct-11 12:33N 31°39' E 121°17'0 0.0
2014-Oct-11 11:29N 31°39' E 121°17'0 0.0
2014-Oct-11 10:33N 31°39' E 121°17'0 0.0
2014-Oct-11 09:33N 31°39' E 121°17'2 1.8
2014-Oct-11 08:33N 31°37' E 121°18'3 3.5
2014-Oct-11 07:33N 31°34' E 121°19'0 0.4
2014-Oct-11 06:33N 31°33' E 121°19'0 0.2
2014-Oct-11 05:33N 31°33' E 121°19'0 0.3
2014-Oct-11 04:33N 31°33' E 121°19'1 1.0
2014-Oct-11 03:33N 31°34' E 121°19'1 0.9
2014-Oct-11 02:33N 31°33' E 121°19'1 0.6
2014-Oct-11 01:33N 31°33' E 121°20'0 0.5
2014-Oct-11 00:33N 31°33' E 121°19'6 5.8
2014-Oct-10 23:33N 31°38' E 121°17'0 0.1
2014-Oct-10 22:33N 31°38' E 121°17'0 0.0
2014-Oct-10 21:33N 31°38' E 121°17'0 0.1
2014-Oct-10 20:33N 31°38' E 121°17'0 0.1
2014-Oct-10 19:33N 31°39' E 121°17'0 0.0
2014-Oct-10 18:33N 31°39' E 121°17'0 0.0
2014-Oct-10 17:31N 31°39' E 121°17'  

Dump ship's entire track history